Dunn, NC (28334)

4:56 AM EDT on August 28, 2015 (GMT -0400)
C and L Farms | | Change Station
CLOSE
Current Station
Personal Weather Station
Location: Dunn, NC
Elevation: 180 ft
Nearby Weather Stations

Elev 180 ft 35.28 °N, 78.65 °W | Updated 4 minutes ago

Clear
Clear
62.4 °F
Feels Like 62.4 °F
N
0.0
Wind Variable Wind from SSW

Today
High -- | Low -- °F
--% Chance of Precip.
Yesterday
High -- | Low -- °F
Precip. -- in
6:43 AM 7:47 PM
Waxing Gibbous, 97% visible
Pressure 30.10 in
Visibility 10.0 miles
Clouds Clear
Dew Point 59 °F
Humidity 89%
Rainfall 0.00 in
Snow Depth Not available.
UV 0 out of 12
Pollen 7.70 out of 12
Air Quality Not available.
Flu Activity Not available.
METAR KHRJ 280835Z AUTO 00000KT 10SM CLR 18/17 A3010 RMK AO2 T01810172
Pressure 30.10 in
Visibility 10.0 miles
Clouds Clear
Dew Point 59 °F
Humidity 89%
Rainfall 0.00 in
Snow Depth Not available.
UV 0 out of 12
Pollen 7.70 out of 12
Air Quality Not available.
Flu Activity Not available.
METAR KHRJ 280835Z AUTO 00000KT 10SM CLR 18/17 A3010 RMK AO2 T01810172
Tropical Storm Erika remains unorganized as it travels through the northeast Caribbean Sea. Puerto Rico could receive over a foot of rain from Erika, which could help the ongoing drought but could also produce dangerous mudslides. Erika is not forecast to reach hurricane strength until Monday when it curves northward along the east coast of Florida. Follow the live blog

10-Day Weather Forecast

×

Almanac

Astronomy

Aug. 28, 2015 Rise Set
Actual Time
Civil Twilight
Nautical Twilight
Astronomical Twilight
Moon
Length of Visible Light
Length of Day
Tomorrow will be .
, % of the Moon is Illuminated

Today's Extremes

State Highs State Lows

Community

WunderPhotos

Upload Photos

1,850,348 photos uploaded!

WunderBlogs® & News

Nearby

Air Quality

  Air Quality AQ Index Pollutant
Not available.

Snow Depth

Station Depth Elevation

Earthquake Activity

City Distance Mag. Time & Date
Minimum magnitude displayed is 2.5.

Coastal Water Temperatures

Place Temperature

Stations

Nearby Weather Stations

Station Location Temp. Windchill Dew Point Humidity Wind Precip. Elev Updated Type